Time;durP1;ratioP1;P1;durP2;ratioP2;P2;SDS_P1;SDS_P2;PMS_P1;PMS_P2;Temp;Humidity;BMP_temperature;BMP_pressure;BME280_temperature;BME280_humidity;BME280_pressure;Samples;Min_cycle;Max_cycle;Signal;HPM_P1;HPM_P2
2022/02/20 00:01:15;;;;;;;0.70;0.70;;;4.20;99.90;;;;;;6100743;23;20030;-83
2022/02/20 00:03:42;;;;;;;3.60;0.83;;;4.20;99.90;;;;;;6075757;23;20101;-82
2022/02/20 00:06:09;;;;;;;1.53;0.70;;;4.20;99.90;;;;;;6100227;23;20030;-82
2022/02/20 00:08:36;;;;;;;2.67;0.67;;;4.20;99.90;;;;;;6099862;23;20022;-82
2022/02/20 00:11:03;;;;;;;2.63;0.80;;;4.10;99.90;;;;;;6100031;23;20030;-82
2022/02/20 00:13:30;;;;;;;2.20;0.97;;;4.00;99.90;;;;;;6099670;23;20086;-82
2022/02/20 00:15:58;;;;;;;1.07;0.73;;;4.00;99.90;;;;;;6100080;23;20023;-84
2022/02/20 00:18:24;;;;;;;4.80;1.20;;;4.00;99.90;;;;;;6075022;23;20026;-82
2022/02/20 00:20:51;;;;;;;1.63;0.50;;;4.00;99.90;;;;;;6099791;23;20442;-81
2022/02/20 00:23:18;;;;;;;0.77;0.77;;;3.90;99.90;;;;;;6100751;23;20027;-81
2022/02/20 00:25:46;;;;;;;2.80;1.33;;;3.90;99.90;;;;;;6099735;23;20070;-81
2022/02/20 00:28:13;;;;;;;0.63;0.50;;;3.90;99.90;;;;;;6099179;23;20048;-81
2022/02/20 00:30:39;;;;;;;1.03;0.40;;;3.90;99.90;;;;;;6099527;23;20353;-81
2022/02/20 00:33:07;;;;;;;1.53;1.43;;;3.80;99.90;;;;;;6098697;23;20454;-78
2022/02/20 00:35:34;;;;;;;1.17;0.97;;;3.80;99.90;;;;;;6099206;23;20059;-82
2022/02/20 00:38:02;;;;;;;1.50;0.90;;;3.80;99.90;;;;;;6075014;23;20044;-83
2022/02/20 00:40:29;;;;;;;2.63;1.10;;;3.80;99.90;;;;;;6100362;23;20346;-82
2022/02/20 00:42:56;;;;;;;0.70;0.70;;;3.80;99.90;;;;;;6099639;23;20085;-83
2022/02/20 00:45:23;;;;;;;2.77;0.80;;;3.90;99.90;;;;;;6100182;23;20054;-82
2022/02/20 00:47:51;;;;;;;4.47;1.07;;;3.80;99.90;;;;;;6099888;23;20033;-82
2022/02/20 00:50:19;;;;;;;4.13;1.00;;;3.90;99.90;;;;;;6098933;23;20394;-81
2022/02/20 00:52:46;;;;;;;5.23;1.20;;;3.80;99.90;;;;;;6099131;23;20059;-82
2022/02/20 00:55:13;;;;;;;1.40;1.30;;;3.80;99.90;;;;;;6099251;23;20026;-82
2022/02/20 00:57:40;;;;;;;3.27;0.77;;;3.70;99.90;;;;;;6098834;23;20078;-81
2022/02/20 01:00:09;;;;;;;1.03;0.77;;;3.70;99.90;;;;;;6099175;23;20030;-85
2022/02/20 01:02:36;;;;;;;2.20;1.03;;;3.80;99.90;;;;;;6098970;23;20029;-80
2022/02/20 01:05:03;;;;;;;1.33;0.80;;;3.70;99.90;;;;;;6098749;23;20022;-81
2022/02/20 01:07:32;;;;;;;2.93;1.23;;;3.70;99.90;;;;;;6098951;23;20078;-81
2022/02/20 01:09:59;;;;;;;2.70;0.80;;;3.60;99.90;;;;;;6098968;23;20033;-82
2022/02/20 01:12:26;;;;;;;4.20;1.03;;;3.50;99.90;;;;;;6098909;23;20063;-81
2022/02/20 01:14:52;;;;;;;3.80;0.80;;;3.50;99.90;;;;;;6098918;23;20509;-81
2022/02/20 01:17:19;;;;;;;3.03;1.30;;;3.40;99.90;;;;;;6098487;23;20018;-82
2022/02/20 01:19:46;;;;;;;1.50;1.27;;;3.40;99.90;;;;;;6073610;23;20077;-80
2022/02/20 01:22:12;;;;;;;2.10;1.00;;;3.30;99.90;;;;;;6098891;23;20022;-80
2022/02/20 01:24:41;;;;;;;2.23;0.97;;;3.30;99.90;;;;;;6098712;23;20022;-79
2022/02/20 01:27:07;;;;;;;1.43;1.10;;;3.30;99.90;;;;;;6099115;23;20022;-81
2022/02/20 01:29:34;;;;;;;1.60;0.83;;;3.20;99.90;;;;;;6099277;23;20026;-79
2022/02/20 01:32:01;;;;;;;6.33;1.97;;;3.20;99.90;;;;;;6098931;23;20022;-80
2022/02/20 01:34:27;;;;;;;5.23;0.83;;;3.20;99.90;;;;;;6099033;23;20397;-80
2022/02/20 01:36:55;;;;;;;3.73;1.60;;;3.20;99.90;;;;;;6098354;23;20023;-79
2022/02/20 01:39:22;;;;;;;3.83;0.70;;;3.10;99.90;;;;;;6098352;23;20022;-82
2022/02/20 01:41:51;;;;;;;3.80;1.13;;;3.10;99.90;;;;;;6098535;23;20030;-81
2022/02/20 01:44:18;;;;;;;1.30;1.20;;;3.10;99.90;;;;;;6097972;23;20071;-82
2022/02/20 01:46:46;;;;;;;1.87;1.33;;;3.20;99.90;;;;;;6098716;23;20070;-80
2022/02/20 01:49:13;;;;;;;1.30;0.73;;;3.20;99.90;;;;;;6098250;23;20097;-79
2022/02/20 01:51:40;;;;;;;4.93;1.53;;;3.10;99.90;;;;;;6098385;23;20026;-80
2022/02/20 01:54:07;;;;;;;1.47;1.30;;;3.10;99.90;;;;;;6098614;23;20033;-80
2022/02/20 01:56:35;;;;;;;2.87;1.03;;;3.00;99.90;;;;;;6102443;23;20019;-81
2022/02/20 01:59:05;;;;;;;2.17;0.63;;;3.10;99.90;;;;;;6098717;23;20022;-81
2022/02/20 02:01:32;;;;;;;0.60;0.60;;;3.10;99.90;;;;;;6097748;23;20022;-81
2022/02/20 02:03:59;;;;;;;3.13;0.90;;;3.00;99.90;;;;;;6097640;23;20042;-81
2022/02/20 02:06:28;;;;;;;1.43;1.23;;;3.00;99.90;;;;;;6097997;23;20466;-81
2022/02/20 02:08:55;;;;;;;1.83;1.23;;;2.90;99.90;;;;;;6097920;23;20022;-80
2022/02/20 02:11:22;;;;;;;2.23;1.17;;;2.80;99.90;;;;;;6098307;23;20022;-81
2022/02/20 02:13:49;;;;;;;2.37;1.20;;;2.80;99.90;;;;;;6098496;23;20458;-80
2022/02/20 02:16:17;;;;;;;1.67;1.57;;;2.80;99.90;;;;;;6097966;23;20542;-79
2022/02/20 02:18:44;;;;;;;3.13;1.10;;;2.70;99.90;;;;;;6098094;23;20391;-79
2022/02/20 02:21:10;;;;;;;1.33;1.13;;;2.70;99.90;;;;;;6098231;23;20485;-79
2022/02/20 02:23:40;;;;;;;4.23;1.77;;;2.70;99.90;;;;;;6098652;23;20079;-79
2022/02/20 02:26:08;;;;;;;0.60;0.60;;;2.80;99.90;;;;;;6098447;23;20026;-79
2022/02/20 02:28:35;;;;;;;1.40;1.30;;;2.70;99.90;;;;;;6097999;23;20027;-80
2022/02/20 02:31:03;;;;;;;1.30;1.30;;;2.60;99.90;;;;;;6098332;23;20450;-79
2022/02/20 02:33:31;;;;;;;3.03;1.57;;;2.60;99.90;;;;;;6098846;23;20080;-79
2022/02/20 02:35:59;;;;;;;1.27;0.80;;;2.60;99.90;;;;;;6098245;23;20050;-80
2022/02/20 02:38:27;;;;;;;1.13;1.10;;;2.60;99.90;;;;;;6098627;23;20053;-80
2022/02/20 02:40:59;;;;;;;1.27;1.17;;;2.60;99.90;;;;;;6098079;23;20105;-81
2022/02/20 02:43:26;;;;;;;6.50;2.67;;;2.60;99.90;;;;;;6098146;23;20725;-79
2022/02/20 02:45:52;;;;;;;2.47;2.13;;;2.60;99.90;;;;;;6097730;23;20018;-79
2022/02/20 02:48:19;;;;;;;3.50;1.53;;;2.60;99.90;;;;;;6097754;23;20026;-80
2022/02/20 02:50:47;;;;;;;3.23;1.90;;;2.60;99.90;;;;;;6097177;23;20536;-80
2022/02/20 02:53:13;;;;;;;2.50;2.27;;;2.50;99.90;;;;;;6097684;23;20074;-78
2022/02/20 02:55:44;;;;;;;2.40;1.70;;;2.50;99.90;;;;;;6097604;23;20026;-81
2022/02/20 02:58:16;;;;;;;2.63;1.37;;;2.50;99.90;;;;;;6097425;23;20026;-78
2022/02/20 03:00:42;;;;;;;;;;;2.50;99.90;;;;;;6098349;23;20026;-80
2022/02/20 03:03:09;;;;;;;5.07;2.40;;;2.60;99.90;;;;;;6097155;23;19969;-79
2022/02/20 03:05:35;;;;;;;3.00;1.37;;;2.50;99.90;;;;;;6097384;23;20023;-80
2022/02/20 03:08:02;;;;;;;2.60;1.47;;;2.50;99.90;;;;;;6099229;23;20078;-81
2022/02/20 03:10:29;;;;;;;2.57;2.33;;;2.60;99.90;;;;;;6101586;23;20026;-80
2022/02/20 03:12:56;;;;;;;2.10;1.90;;;2.50;99.90;;;;;;6098865;23;20058;-80
2022/02/20 03:15:24;;;;;;;2.70;2.50;;;2.50;99.90;;;;;;6101805;23;20026;-80
2022/02/20 03:17:51;;;;;;;4.17;2.47;;;2.60;99.90;;;;;;6100498;23;20026;-79
2022/02/20 03:20:18;;;;;;;7.30;2.07;;;2.60;99.90;;;;;;6102779;23;20421;-79
2022/02/20 03:22:44;;;;;;;2.30;1.73;;;2.60;99.90;;;;;;6102249;23;20026;-81
2022/02/20 03:25:11;;;;;;;3.23;1.53;;;2.60;99.90;;;;;;6098895;23;20026;-81
2022/02/20 03:27:37;;;;;;;1.40;1.30;;;2.60;99.90;;;;;;6097651;23;20343;-79
2022/02/20 03:30:05;;;;;;;1.90;1.80;;;2.60;99.90;;;;;;6097942;23;20019;-79
2022/02/20 03:32:33;;;;;;;1.90;1.57;;;2.60;99.90;;;;;;6097459;23;20086;-79
2022/02/20 03:35:00;;;;;;;2.10;1.73;;;2.50;99.90;;;;;;6097988;23;20341;-79
2022/02/20 03:37:27;;;;;;;2.13;1.63;;;2.50;99.90;;;;;;6098260;23;20073;-78
2022/02/20 03:39:53;;;;;;;2.03;1.90;;;2.50;99.90;;;;;;6098598;23;20518;-79
2022/02/20 03:42:20;;;;;;;65.77;42.77;;;2.50;99.90;;;;;;6113076;23;20473;-79
2022/02/20 03:44:47;;;;;;;14.90;11.33;;;2.50;99.90;;;;;;6121541;23;20078;-79
2022/02/20 03:47:13;;;;;;;2.60;1.60;;;2.40;99.90;;;;;;6118560;23;20018;-80
2022/02/20 03:49:41;;;;;;;1.73;1.63;;;2.50;99.90;;;;;;6113329;23;20078;-79
2022/02/20 03:52:08;;;;;;;7.73;3.20;;;2.40;99.90;;;;;;6118058;23;20026;-78
2022/02/20 03:54:35;;;;;;;2.27;1.93;;;2.40;99.90;;;;;;6116718;23;20490;-80
2022/02/20 03:57:01;;;;;;;2.40;2.17;;;2.40;99.90;;;;;;6115667;23;20070;-80
2022/02/20 03:59:28;;;;;;;2.40;2.20;;;2.40;99.90;;;;;;6114829;23;20023;-80
2022/02/20 04:01:55;;;;;;;2.83;2.17;;;2.40;99.90;;;;;;6107585;23;20026;-78
2022/02/20 04:04:21;;;;;;;1.90;1.60;;;2.40;99.90;;;;;;6106930;23;20026;-79
2022/02/20 04:06:51;;;;;;;2.07;1.97;;;2.40;99.90;;;;;;6110543;23;20470;-79
2022/02/20 04:09:18;;;;;;;1.60;1.50;;;2.40;99.90;;;;;;6085821;23;20042;-79
2022/02/20 04:11:45;;;;;;;7.27;2.20;;;2.40;99.90;;;;;;6111346;23;20023;-79
2022/02/20 04:14:11;;;;;;;0.80;0.77;;;2.40;99.90;;;;;;6112516;23;20078;-79
2022/02/20 04:16:38;;;;;;;4.90;1.97;;;2.40;99.90;;;;;;6113836;23;20446;-79
2022/02/20 04:19:04;;;;;;;2.87;1.70;;;2.40;99.90;;;;;;6112131;23;20026;-79
2022/02/20 04:21:31;;;;;;;1.57;1.43;;;2.40;99.90;;;;;;6104550;23;20029;-80
2022/02/20 04:23:59;;;;;;;4.27;1.30;;;2.40;99.90;;;;;;6107738;23;20453;-79
2022/02/20 04:26:25;;;;;;;2.00;1.67;;;2.40;99.90;;;;;;6113223;23;20019;-78
2022/02/20 04:28:52;;;;;;;1.63;1.23;;;2.40;99.90;;;;;;6113036;23;20080;-79
2022/02/20 04:31:20;;;;;;;2.80;2.40;;;2.40;99.90;;;;;;6113305;23;20027;-79
2022/02/20 04:33:47;;;;;;;2.43;1.73;;;2.50;99.90;;;;;;6111228;23;20030;-78
2022/02/20 04:36:14;;;;;;;2.40;1.80;;;2.40;99.90;;;;;;6115138;23;20022;-79
2022/02/20 04:38:40;;;;;;;1.50;1.40;;;2.50;99.90;;;;;;6114032;23;20027;-79
2022/02/20 04:41:08;;;;;;;1.97;1.70;;;2.50;99.90;;;;;;6106169;23;20022;-79
2022/02/20 04:43:35;;;;;;;29.70;18.70;;;2.50;99.90;;;;;;6099899;23;20454;-78
2022/02/20 04:46:02;;;;;;;9.70;6.37;;;2.50;99.90;;;;;;6099413;23;20081;-79
2022/02/20 04:48:28;;;;;;;2.97;2.70;;;2.50;99.90;;;;;;6099807;23;20026;-78
2022/02/20 04:50:55;;;;;;;2.43;2.23;;;2.50;99.90;;;;;;6099390;23;20475;-78
2022/02/20 04:53:22;;;;;;;1.63;1.50;;;2.60;99.90;;;;;;6099206;23;20027;-79
2022/02/20 04:55:49;;;;;;;1.73;1.53;;;2.60;99.90;;;;;;6099481;23;20089;-79
2022/02/20 04:58:17;;;;;;;1.03;1.03;;;2.60;99.90;;;;;;6098676;23;20529;-79
2022/02/20 05:00:43;;;;;;;2.37;2.07;;;2.60;99.90;;;;;;6098950;23;20077;-78
2022/02/20 05:03:10;;;;;;;1.43;1.33;;;2.60;99.90;;;;;;6098727;23;20033;-78
2022/02/20 05:05:37;;;;;;;4.63;1.80;;;2.60;99.90;;;;;;6098940;23;20030;-78
2022/02/20 05:08:04;;;;;;;1.93;1.73;;;2.70;99.90;;;;;;6098611;23;20063;-79
2022/02/20 05:10:31;;;;;;;1.53;1.33;;;2.70;99.90;;;;;;6098477;23;20101;-78
2022/02/20 05:12:58;;;;;;;3.63;2.53;;;2.80;99.90;;;;;;6098368;23;20026;-80
2022/02/20 05:15:26;;;;;;;3.37;2.37;;;2.70;99.90;;;;;;6099074;23;20353;-81
2022/02/20 05:17:52;;;;;;;2.60;1.93;;;2.70;99.90;;;;;;6098621;23;20505;-82
2022/02/20 05:20:20;;;;;;;3.63;2.03;;;2.80;99.90;;;;;;6099259;23;20027;-81
2022/02/20 05:22:46;;;;;;;1.63;1.53;;;2.80;99.90;;;;;;6098238;23;20018;-81
2022/02/20 05:25:13;;;;;;;2.50;2.17;;;2.90;99.90;;;;;;6099018;23;20438;-80
2022/02/20 05:27:42;;;;;;;4.17;2.87;;;2.80;99.90;;;;;;6098520;23;20021;-81
2022/02/20 05:30:10;;;;;;;3.33;2.30;;;2.80;99.90;;;;;;6098450;23;20366;-81
2022/02/20 05:32:39;;;;;;;2.33;1.77;;;2.80;99.90;;;;;;6098496;23;20480;-81
2022/02/20 05:35:07;;;;;;;2.10;1.80;;;2.80;99.90;;;;;;6098790;23;20026;-82
2022/02/20 05:37:40;;;;;;;2.83;2.20;;;2.80;99.90;;;;;;6098039;23;20045;-82
2022/02/20 05:40:08;;;;;;;2.23;2.07;;;2.90;99.90;;;;;;6098271;23;20022;-79
2022/02/20 05:42:34;;;;;;;2.53;2.00;;;2.90;99.90;;;;;;6098880;23;20030;-80
2022/02/20 05:45:01;;;;;;;1.80;1.70;;;3.00;99.90;;;;;;6098379;23;20026;-80
2022/02/20 05:47:28;;;;;;;2.87;2.27;;;3.00;99.90;;;;;;6098448;23;20033;-81
2022/02/20 05:49:55;;;;;;;2.53;1.50;;;3.00;99.90;;;;;;6098264;23;20026;-81
2022/02/20 05:52:22;;;;;;;6.47;2.50;;;3.00;99.90;;;;;;6098244;23;20022;-81
2022/02/20 05:54:49;;;;;;;3.40;1.90;;;3.00;99.90;;;;;;6098240;23;20030;-79
2022/02/20 05:57:16;;;;;;;3.07;2.60;;;3.10;99.90;;;;;;6098708;23;20018;-80
2022/02/20 05:59:43;;;;;;;3.17;2.03;;;3.00;99.90;;;;;;6098308;23;20379;-80
2022/02/20 06:02:11;;;;;;;2.57;2.07;;;3.10;99.90;;;;;;6098225;23;20042;-80
2022/02/20 06:04:38;;;;;;;1.87;1.77;;;3.10;99.90;;;;;;6099462;23;20478;-88
2022/02/20 06:07:06;;;;;;;2.70;2.47;;;3.10;99.90;;;;;;6076118;23;20022;-84
2022/02/20 06:09:33;;;;;;;2.43;2.23;;;3.20;99.90;;;;;;6099725;23;20395;-83
2022/02/20 06:12:00;;;;;;;3.30;3.03;;;3.20;99.90;;;;;;6100650;23;20025;-81
2022/02/20 06:14:27;;;;;;;2.90;2.30;;;3.20;99.90;;;;;;6098473;23;20026;-83
2022/02/20 06:16:54;;;;;;;2.90;2.70;;;3.20;99.90;;;;;;6097867;23;20055;-84
2022/02/20 06:19:22;;;;;;;2.63;2.10;;;3.30;99.90;;;;;;6102462;23;20028;-92
2022/02/20 06:21:58;;;;;;;3.30;2.73;;;3.30;99.90;;;;;;6104262;23;20053;-89
2022/02/20 06:24:38;;;;;;;5.40;3.10;;;3.30;99.90;;;;;;6103135;23;20027;-91
2022/02/20 06:29:56;;;;;;;;;;;3.50;99.90;;;;;;6107482;23;20509;-91
2022/02/20 06:32:27;;;;;;;4.40;2.50;;;3.40;99.90;;;;;;6107443;23;19917;-93
2022/02/20 06:40:44;;;;;;;5.05;2.75;;;3.60;99.90;;;;;;6109937;23;20018;-87
2022/02/20 06:43:23;;;;;;;3.27;2.27;;;3.50;99.90;;;;;;6112574;23;20023;-90
2022/02/20 06:48:36;;;;;;;4.90;2.77;;;3.50;99.90;;;;;;6104782;23;20057;-80
2022/02/20 06:51:02;;;;;;;2.77;2.30;;;3.50;99.90;;;;;;6099172;23;20454;-80
2022/02/20 06:53:29;;;;;;;3.87;2.93;;;3.60;99.90;;;;;;6098279;23;20026;-80
2022/02/20 06:55:57;;;;;;;3.83;2.60;;;3.60;99.90;;;;;;6098938;23;20086;-83
2022/02/20 06:58:24;;;;;;;6.97;4.13;;;3.60;99.90;;;;;;6098128;23;20041;-83
2022/02/20 07:00:50;;;;;;;2.63;2.20;;;3.70;99.90;;;;;;6070584;23;20029;-82
2022/02/20 07:03:17;;;;;;;5.63;2.27;;;3.70;99.90;;;;;;6096552;23;20085;-82
2022/02/20 07:05:44;;;;;;;3.07;1.87;;;3.70;99.90;;;;;;6095068;23;20023;-82
2022/02/20 07:08:11;;;;;;;2.57;2.30;;;3.70;99.90;;;;;;6097342;23;20019;-86
2022/02/20 07:10:38;;;;;;;2.83;2.57;;;3.70;99.90;;;;;;6097875;23;20539;-85
2022/02/20 07:13:06;;;;;;;2.37;2.17;;;3.80;99.90;;;;;;6098064;23;20026;-83
2022/02/20 07:15:33;;;;;;;3.03;2.80;;;3.90;99.90;;;;;;6099499;23;20029;-85
2022/02/20 07:18:00;;;;;;;2.50;2.30;;;3.90;99.90;;;;;;6101734;23;20406;-86
2022/02/20 07:20:29;;;;;;;1.90;1.70;;;3.90;99.90;;;;;;6103601;23;20018;-89
2022/02/20 07:25:40;;;;;;;2.73;2.53;;;4.10;99.90;;;;;;6145438;23;20050;-88
2022/02/20 07:28:10;;;;;;;2.50;2.30;;;4.00;99.90;;;;;;6130796;23;20018;-88
2022/02/20 07:30:37;;;;;;;2.30;2.07;;;4.00;99.90;;;;;;6130784;23;20100;-84
2022/02/20 07:33:07;;;;;;;2.47;2.27;;;4.00;99.90;;;;;;6129689;23;20018;-86
2022/02/20 07:35:36;;;;;;;4.27;3.00;;;4.00;99.90;;;;;;6132495;23;20072;-93
2022/02/20 07:38:04;;;;;;;5.33;3.73;;;3.90;99.90;;;;;;6128974;23;20350;-82
2022/02/20 07:40:31;;;;;;;3.40;3.10;;;4.00;99.90;;;;;;6129443;23;20357;-87
2022/02/20 07:42:58;;;;;;;3.70;2.17;;;4.10;99.90;;;;;;6128518;23;20345;-80
2022/02/20 07:45:26;;;;;;;3.17;2.87;;;4.10;99.90;;;;;;6126192;23;20096;-79
2022/02/20 07:47:56;;;;;;;2.73;2.40;;;4.00;99.90;;;;;;6126496;23;20353;-80
2022/02/20 07:50:24;;;;;;;4.73;3.27;;;4.10;99.90;;;;;;6127093;23;20036;-80
2022/02/20 07:52:51;;;;;;;5.13;3.33;;;4.10;99.90;;;;;;6126706;23;20508;-81
2022/02/20 07:55:18;;;;;;;4.80;3.10;;;4.00;99.90;;;;;;6127058;23;20026;-82
2022/02/20 07:57:45;;;;;;;5.03;3.43;;;4.00;99.90;;;;;;6126867;23;20026;-80
2022/02/20 08:00:13;;;;;;;7.17;5.60;;;4.00;99.90;;;;;;6127655;23;20077;-80
2022/02/20 08:02:42;;;;;;;3.07;2.50;;;4.10;99.90;;;;;;6131265;23;20024;-77
2022/02/20 08:05:10;;;;;;;34.87;18.73;;;4.10;99.90;;;;;;6157454;23;20028;-78
2022/02/20 08:07:37;;;;;;;7.93;5.90;;;4.00;99.90;;;;;;6158982;23;20017;-85
2022/02/20 08:10:05;;;;;;;3.23;2.93;;;4.00;99.90;;;;;;6162674;23;20084;-89
2022/02/20 08:12:32;;;;;;;3.27;2.30;;;4.00;99.90;;;;;;6160265;23;20048;-81
2022/02/20 08:14:59;;;;;;;3.87;2.40;;;4.00;99.90;;;;;;6159376;23;20073;-83
2022/02/20 08:17:26;;;;;;;3.27;2.40;;;4.00;99.90;;;;;;6160301;23;20024;-85
2022/02/20 08:19:55;;;;;;;2.30;2.07;;;3.90;99.90;;;;;;6147324;23;20033;-83
2022/02/20 08:22:22;;;;;;;2.27;1.90;;;3.90;99.90;;;;;;6159535;23;20022;-83
2022/02/20 08:24:48;;;;;;;2.73;1.97;;;4.10;99.90;;;;;;6159798;23;20023;-85
2022/02/20 08:27:16;;;;;;;1.87;1.60;;;4.20;99.90;;;;;;6161404;23;20022;-82
2022/02/20 08:29:42;;;;;;;1.60;1.37;;;4.30;99.90;;;;;;6157790;23;20021;-79
2022/02/20 08:32:09;;;;;;;3.27;2.30;;;4.30;99.90;;;;;;6157743;23;20393;-79
2022/02/20 08:34:37;;;;;;;2.60;1.80;;;4.30;99.90;;;;;;6158009;23;20021;-78
2022/02/20 08:37:05;;;;;;;3.33;2.03;;;4.40;99.90;;;;;;6158254;23;20084;-79
2022/02/20 08:39:34;;;;;;;2.97;2.37;;;4.50;99.90;;;;;;6157899;23;20444;-79
2022/02/20 08:42:03;;;;;;;3.27;2.67;;;4.50;99.90;;;;;;6157821;23;20100;-78
2022/02/20 08:44:33;;;;;;;3.37;2.47;;;4.70;99.90;;;;;;6157792;23;20029;-75
2022/02/20 08:47:00;;;;;;;6.77;5.10;;;4.70;99.90;;;;;;6157881;23;20068;-76
2022/02/20 08:49:27;;;;;;;9.63;6.17;;;4.80;99.90;;;;;;6157898;23;20468;-79
2022/02/20 08:51:53;;;;;;;7.27;3.10;;;4.90;99.90;;;;;;6157251;23;20108;-80
2022/02/20 08:54:22;;;;;;;3.80;3.40;;;4.90;99.90;;;;;;6158165;23;20044;-78
2022/02/20 08:56:49;;;;;;;2.17;1.73;;;4.90;99.90;;;;;;6157831;23;20026;-79
2022/02/20 08:59:15;;;;;;;3.50;2.13;;;5.00;99.90;;;;;;6158481;23;20397;-79
2022/02/20 09:01:42;;;;;;;2.17;2.00;;;5.20;99.90;;;;;;6158174;23;20025;-80
2022/02/20 09:04:12;;;;;;;1.80;1.37;;;5.20;99.90;;;;;;6157921;23;20077;-79
2022/02/20 09:06:39;;;;;;;2.27;1.70;;;5.40;99.90;;;;;;6157578;23;20460;-79
2022/02/20 09:09:06;;;;;;;1.60;1.50;;;5.80;99.90;;;;;;6157776;23;20072;-79
2022/02/20 09:11:34;;;;;;;1.73;1.60;;;5.80;99.90;;;;;;6156754;23;20049;-78
2022/02/20 09:14:00;;;;;;;1.63;1.47;;;6.10;99.90;;;;;;6157374;23;20087;-77
2022/02/20 09:16:27;;;;;;;2.33;1.47;;;6.20;99.90;;;;;;6157049;23;20033;-79
2022/02/20 09:18:56;;;;;;;7.57;5.20;;;6.00;99.90;;;;;;6157820;23;20235;-87
2022/02/20 09:21:23;;;;;;;22.87;13.93;;;6.00;99.90;;;;;;6158913;23;20041;-78
2022/02/20 09:23:49;;;;;;;32.03;20.00;;;6.10;99.90;;;;;;6158429;23;20080;-79
2022/02/20 09:26:16;;;;;;;4.03;2.40;;;6.30;99.90;;;;;;6157728;23;20025;-78
2022/02/20 09:28:44;;;;;;;4.23;2.37;;;6.30;99.90;;;;;;6158589;23;20025;-80
2022/02/20 09:31:11;;;;;;;1.97;1.77;;;6.00;99.90;;;;;;6158225;23;20022;-79
2022/02/20 09:33:37;;;;;;;2.13;1.73;;;5.80;99.90;;;;;;6157043;23;20452;-78
2022/02/20 09:36:04;;;;;;;8.70;2.67;;;5.70;99.90;;;;;;6157215;23;20029;-79
2022/02/20 09:38:31;;;;;;;2.53;2.03;;;5.70;99.90;;;;;;6157355;23;20052;-80
2022/02/20 09:40:58;;;;;;;3.43;1.87;;;5.70;99.90;;;;;;6157359;23;20026;-79
2022/02/20 09:43:24;;;;;;;5.00;2.73;;;5.40;99.90;;;;;;6157236;23;20029;-79
2022/02/20 09:45:52;;;;;;;2.50;2.13;;;5.50;99.90;;;;;;6157428;23;20025;-78
2022/02/20 09:48:19;;;;;;;1.83;1.03;;;5.70;99.90;;;;;;6157323;23;20080;-78
2022/02/20 09:50:46;;;;;;;2.23;1.30;;;5.90;99.90;;;;;;6157498;23;20025;-79
2022/02/20 09:53:14;;;;;;;2.20;1.97;;;5.90;99.90;;;;;;6157030;23;20040;-78
2022/02/20 09:55:44;;;;;;;1.67;1.57;;;6.10;99.90;;;;;;6155727;23;20025;-78
2022/02/20 09:58:10;;;;;;;3.67;1.87;;;6.30;99.90;;;;;;6156399;23;20080;-77
2022/02/20 10:00:37;;;;;;;2.50;2.30;;;6.00;99.90;;;;;;6156863;23;20029;-77
2022/02/20 10:03:05;;;;;;;2.87;2.27;;;6.00;99.90;;;;;;6156230;23;20456;-79
2022/02/20 10:05:32;;;;;;;2.10;1.90;;;6.00;99.90;;;;;;6156824;23;20048;-82
2022/02/20 10:08:04;;;;;;;2.27;2.07;;;6.00;99.90;;;;;;6159377;23;20025;-82
2022/02/20 10:10:32;;;;;;;3.57;2.10;;;6.10;99.90;;;;;;6134797;23;20025;-80
2022/02/20 10:13:01;;;;;;;4.93;2.80;;;6.20;99.90;;;;;;6157827;23;20022;-78
2022/02/20 10:15:31;;;;;;;5.53;3.63;;;6.20;99.90;;;;;;6157930;23;20022;-76
2022/02/20 10:17:59;;;;;;;6.20;3.87;;;6.10;99.90;;;;;;6157732;23;20025;-78
2022/02/20 10:20:27;;;;;;;4.10;2.83;;;5.90;99.90;;;;;;6156044;23;20021;-79
2022/02/20 10:22:54;;;;;;;2.80;2.30;;;5.70;99.90;;;;;;6155345;23;20073;-77
2022/02/20 10:25:20;;;;;;;2.87;2.20;;;5.70;99.90;;;;;;6155702;23;20101;-77
2022/02/20 10:27:50;;;;;;;3.70;2.60;;;5.70;99.90;;;;;;6156115;23;20080;-78
2022/02/20 10:30:22;;;;;;;2.47;2.27;;;5.70;99.90;;;;;;6156884;23;20029;-77
2022/02/20 10:33:07;;;;;;;2.03;1.83;;;5.70;99.90;;;;;;6156662;23;20088;-79
2022/02/20 10:35:36;;;;;;;5.00;2.47;;;5.60;99.90;;;;;;6156049;23;20105;-77
2022/02/20 10:38:08;;;;;;;2.37;2.17;;;5.70;99.90;;;;;;6156783;23;20060;-85
2022/02/20 10:40:35;;;;;;;4.07;3.67;;;5.80;99.90;;;;;;6132086;23;20032;-84
2022/02/20 10:43:04;;;;;;;3.30;2.37;;;5.80;99.90;;;;;;6157665;23;20028;-84
2022/02/20 10:45:33;;;;;;;4.70;2.53;;;5.80;99.90;;;;;;6157805;23;20380;-83
2022/02/20 10:48:02;;;;;;;3.90;2.30;;;5.80;99.90;;;;;;6156426;23;20032;-78
2022/02/20 10:50:30;;;;;;;2.23;1.87;;;5.80;99.90;;;;;;6157647;23;20021;-81
2022/02/20 10:53:10;;;;;;;4.27;2.80;;;6.00;99.90;;;;;;6156293;23;20029;-81
2022/02/20 10:55:39;;;;;;;3.87;2.70;;;6.20;99.90;;;;;;6159431;23;20394;-85
2022/02/20 10:58:14;;;;;;;2.83;2.23;;;6.20;99.90;;;;;;6156942;23;20040;-82
2022/02/20 11:00:49;;;;;;;3.47;2.30;;;6.20;99.90;;;;;;6157321;23;20100;-82
2022/02/20 11:03:17;;;;;;;5.83;3.13;;;6.30;99.90;;;;;;6157737;23;20030;-82
2022/02/20 11:05:44;;;;;;;3.83;2.43;;;6.40;99.90;;;;;;6158049;23;20025;-81
2022/02/20 11:08:14;;;;;;;2.93;2.70;;;6.50;99.90;;;;;;6157340;23;20400;-80
2022/02/20 11:10:42;;;;;;;2.57;2.20;;;6.60;99.90;;;;;;6156918;23;20084;-84
2022/02/20 11:13:11;;;;;;;2.43;1.83;;;6.60;99.90;;;;;;6157657;23;20049;-82
2022/02/20 11:15:38;;;;;;;4.37;2.53;;;6.60;99.90;;;;;;6164595;23;20052;-80
2022/02/20 11:18:07;;;;;;;3.37;2.53;;;6.70;99.90;;;;;;6176468;23;20012;-87
2022/02/20 11:20:39;;;;;;;3.50;2.63;;;6.50;99.90;;;;;;6180624;23;20021;-86
2022/02/20 11:23:08;;;;;;;3.63;2.00;;;6.60;99.90;;;;;;6181516;23;20081;-84
2022/02/20 11:25:38;;;;;;;4.50;2.97;;;6.50;99.90;;;;;;6181636;23;20001;-85
2022/02/20 11:28:06;;;;;;;4.70;2.23;;;6.50;99.90;;;;;;6182387;23;20037;-86
2022/02/20 11:30:34;;;;;;;2.77;1.97;;;6.40;99.90;;;;;;6183563;23;20024;-85
2022/02/20 11:33:04;;;;;;;4.20;2.20;;;6.30;99.90;;;;;;6181360;23;20021;-81
2022/02/20 11:38:14;;;;;;;2.88;2.05;;;6.20;99.90;;;;;;6185735;23;20009;-83
2022/02/20 11:43:53;;;;;;;3.33;2.43;;;6.20;99.90;;;;;;6079128;23;19917;-90
2022/02/20 11:46:22;;;;;;;2.30;1.93;;;6.10;99.90;;;;;;6080270;23;20019;-87
2022/02/20 11:49:26;;;;;;;3.30;2.57;;;6.10;99.90;;;;;;6077643;23;20050;-82
2022/02/20 11:51:59;;;;;;;4.10;2.70;;;6.10;99.90;;;;;;6072860;23;20019;-84
2022/02/20 11:54:26;;;;;;;5.13;2.60;;;6.00;99.90;;;;;;6060575;23;20411;-83
2022/02/20 12:02:30;;;;;;;2.83;2.33;;;5.80;99.90;;;;;;6127419;23;20026;-84
2022/02/20 12:05:06;;;;;;;2.17;1.47;;;5.60;99.90;;;;;;6154605;23;20010;-85
2022/02/20 12:07:38;;;;;;;4.20;1.90;;;5.40;99.90;;;;;;6148980;23;20018;-78
2022/02/20 12:10:43;;;;;;;;;;;5.20;99.90;;;;;;6135222;23;20125;-79
2022/02/20 12:13:32;;;;;;;1.67;1.43;;;5.10;99.90;;;;;;6064259;23;19917;-83
2022/02/20 12:16:22;;;;;;;2.37;2.10;;;5.00;99.90;;;;;;6150603;23;20006;-81
2022/02/20 12:19:10;;;;;;;1.43;1.00;;;5.00;99.90;;;;;;6133461;23;20022;-83
2022/02/20 12:21:54;;;;;;;1.40;1.27;;;4.90;99.90;;;;;;6129150;23;20033;-79
2022/02/20 12:24:23;;;;;;;1.47;1.37;;;4.70;99.90;;;;;;6129313;23;20025;-82
2022/02/20 12:26:55;;;;;;;6.77;2.20;;;4.70;99.90;;;;;;6132420;23;20461;-85
2022/02/20 12:29:24;;;;;;;1.95;1.50;;;4.70;99.90;;;;;;6130116;23;20105;-83
2022/02/20 12:32:06;;;;;;;3.33;1.87;;;4.60;99.90;;;;;;6104596;23;20109;-83
2022/02/20 12:35:13;;;;;;;1.90;1.80;;;4.60;99.90;;;;;;6132113;23;20105;-85
2022/02/20 12:37:42;;;;;;;1.93;1.70;;;4.30;99.90;;;;;;6131503;23;20421;-82
2022/02/20 12:40:10;;;;;;;2.10;1.47;;;4.30;99.90;;;;;;6130443;23;20026;-82
2022/02/20 13:00:31;;;;;;;4.33;2.57;;;4.10;99.90;;;;;;6022407;23;20027;-82
2022/02/20 13:13:22;;;;;;;5.27;4.00;;;4.40;99.90;;;;;;6093475;23;20052;-84
2022/02/20 13:15:53;;;;;;;4.67;3.83;;;4.50;99.90;;;;;;6100123;23;20026;-76
2022/02/20 13:18:21;;;;;;;6.20;3.60;;;4.40;99.90;;;;;;6100026;23;20098;-76
2022/02/20 13:20:50;;;;;;;3.50;3.20;;;4.60;99.90;;;;;;6101711;23;20073;-76
2022/02/20 13:23:22;;;;;;;4.40;3.60;;;4.60;99.90;;;;;;6100212;23;20026;-77
2022/02/20 13:25:51;;;;;;;4.20;2.93;;;4.60;99.90;;;;;;6099333;23;20033;-77
2022/02/20 13:28:19;;;;;;;5.13;3.60;;;4.70;99.90;;;;;;6098730;23;20093;-75
2022/02/20 13:30:47;;;;;;;7.50;3.87;;;4.70;99.90;;;;;;6098189;23;20033;-78
2022/02/20 13:33:16;;;;;;;7.00;3.80;;;4.70;99.90;;;;;;6099037;23;20027;-76
2022/02/20 13:35:44;;;;;;;9.10;3.60;;;4.70;99.90;;;;;;6098672;23;20069;-77
2022/02/20 13:38:13;;;;;;;6.27;3.37;;;4.80;99.90;;;;;;6100230;23;20065;-76
2022/02/20 13:40:43;;;;;;;5.97;3.63;;;5.00;99.90;;;;;;6134155;23;20025;-82
2022/02/20 13:43:13;;;;;;;10.20;4.17;;;4.90;99.90;;;;;;6142259;23;20026;-80
2022/02/20 13:45:54;;;;;;;4.40;3.17;;;4.80;99.90;;;;;;6140894;23;20025;-77
2022/02/20 13:48:30;;;;;;;9.53;4.10;;;4.90;99.90;;;;;;6137000;23;20089;-79
2022/02/20 13:51:18;;;;;;;5.40;3.67;;;5.00;99.90;;;;;;6135083;23;20022;-76
2022/02/20 13:53:47;;;;;;;4.37;2.77;;;5.10;99.90;;;;;;6118110;23;20029;-76
2022/02/20 13:56:16;;;;;;;3.70;3.30;;;5.10;99.90;;;;;;6110664;23;20033;-77
2022/02/20 13:58:43;;;;;;;8.07;3.27;;;5.00;99.90;;;;;;6102060;23;20029;-76